createdAt,value
2022-12-11T00:00:23.739Z,100.00
2022-12-11T00:02:50.515Z,100.00
2022-12-11T00:05:17.237Z,100.00
2022-12-11T00:07:44.024Z,100.00
2022-12-11T00:10:10.709Z,100.00
2022-12-11T00:12:37.375Z,100.00
2022-12-11T00:15:04.649Z,100.00
2022-12-11T00:17:31.433Z,100.00
2022-12-11T00:19:58.107Z,100.00
2022-12-11T00:22:24.801Z,100.00
2022-12-11T00:24:51.659Z,100.00
2022-12-11T00:27:18.237Z,100.00
2022-12-11T00:29:45.057Z,100.00
2022-12-11T00:32:11.779Z,100.00
2022-12-11T00:34:38.615Z,100.00
2022-12-11T00:37:05.454Z,100.00
2022-12-11T00:39:32.183Z,100.00
2022-12-11T00:41:58.900Z,100.00
2022-12-11T00:44:25.586Z,100.00
2022-12-11T00:46:52.328Z,100.00
2022-12-11T00:49:18.889Z,100.00
2022-12-11T00:51:45.615Z,100.00
2022-12-11T00:54:12.256Z,100.00
2022-12-11T00:56:39.091Z,100.00
2022-12-11T00:59:05.749Z,100.00
2022-12-11T01:01:32.520Z,100.00
2022-12-11T01:03:59.152Z,100.00
2022-12-11T01:06:26.565Z,100.00
2022-12-11T01:09:13.491Z,100.00
2022-12-11T01:11:40.464Z,100.00
2022-12-11T01:14:07.105Z,100.00
2022-12-11T01:16:33.840Z,100.00
2022-12-11T01:19:00.715Z,100.00
2022-12-11T01:21:27.454Z,100.00
2022-12-11T01:23:54.128Z,100.00
2022-12-11T01:26:21.515Z,100.00
2022-12-11T01:28:51.532Z,100.00
2022-12-11T01:31:19.000Z,100.00
2022-12-11T01:33:45.854Z,100.00
2022-12-11T01:36:15.407Z,100.00
2022-12-11T01:38:42.072Z,100.00
2022-12-11T01:41:09.084Z,100.00
2022-12-11T01:43:55.455Z,100.00
2022-12-11T01:46:22.266Z,100.00
2022-12-11T01:48:48.914Z,100.00
2022-12-11T01:51:15.668Z,100.00
2022-12-11T01:53:43.880Z,100.00
2022-12-11T01:56:10.535Z,100.00
2022-12-11T01:58:42.865Z,100.00
2022-12-11T02:01:12.085Z,100.00
2022-12-11T02:03:38.769Z,100.00
2022-12-11T02:06:05.556Z,100.00
2022-12-11T02:08:32.117Z,100.00
2022-12-11T02:11:25.739Z,100.00
2022-12-11T02:14:02.281Z,100.00
2022-12-11T02:16:32.437Z,100.00
2022-12-11T02:19:18.472Z,100.00
2022-12-11T02:21:48.577Z,100.00
2022-12-11T02:24:45.815Z,100.00
2022-12-11T02:27:30.765Z,100.00
2022-12-11T02:30:07.172Z,100.00
2022-12-11T02:32:35.516Z,100.00
2022-12-11T02:35:20.155Z,100.00
2022-12-11T02:37:47.763Z,100.00
2022-12-11T02:40:15.689Z,100.00
2022-12-11T02:42:43.193Z,100.00
2022-12-11T02:45:10.948Z,100.00
2022-12-11T02:47:37.785Z,100.00
2022-12-11T02:50:07.994Z,100.00
2022-12-11T02:52:34.668Z,100.00
2022-12-11T02:55:01.490Z,100.00
2022-12-11T02:57:30.139Z,100.00
2022-12-11T02:59:56.799Z,100.00
2022-12-11T03:02:23.510Z,100.00
2022-12-11T03:04:50.606Z,100.00
2022-12-11T03:07:26.011Z,100.00
2022-12-11T03:09:52.700Z,100.00
2022-12-11T03:12:21.647Z,100.00
2022-12-11T03:14:48.940Z,100.00
2022-12-11T03:17:17.986Z,100.00
2022-12-11T03:19:55.635Z,100.00
2022-12-11T03:22:25.555Z,100.00
2022-12-11T03:24:55.558Z,100.00
2022-12-11T03:27:30.928Z,100.00
2022-12-11T03:30:00.393Z,100.00
2022-12-11T03:32:29.651Z,100.00
2022-12-11T03:35:06.873Z,100.00
2022-12-11T03:37:35.476Z,100.00
2022-12-11T03:40:08.940Z,100.00
2022-12-11T03:42:35.727Z,100.00
2022-12-11T03:45:02.378Z,100.00
2022-12-11T03:47:29.026Z,100.00
2022-12-11T03:49:55.845Z,100.00
2022-12-11T03:52:22.396Z,100.00
2022-12-11T03:54:49.741Z,100.00
2022-12-11T03:59:21.819Z,100.00
2022-12-11T04:01:48.593Z,100.00
2022-12-11T04:04:15.518Z,100.00
2022-12-11T04:06:42.215Z,100.00
2022-12-11T04:09:08.870Z,100.00
2022-12-11T04:11:35.641Z,100.00
2022-12-11T04:14:21.199Z,100.00
2022-12-11T04:16:47.922Z,100.00
2022-12-11T04:19:43.856Z,100.00
2022-12-11T04:22:30.232Z,100.00
2022-12-11T04:24:57.034Z,100.00
2022-12-11T04:27:42.334Z,100.00
2022-12-11T04:30:11.369Z,100.00
2022-12-11T04:32:38.025Z,100.00
2022-12-11T04:35:06.767Z,100.00
2022-12-11T04:37:33.435Z,100.00
2022-12-11T04:40:00.113Z,100.00
2022-12-11T04:42:26.767Z,100.00
2022-12-11T04:44:53.434Z,100.00
2022-12-11T04:47:20.102Z,100.00
2022-12-11T04:49:46.843Z,100.00
2022-12-11T04:52:13.469Z,100.00
2022-12-11T04:54:40.204Z,100.00
2022-12-11T04:57:06.885Z,100.00
2022-12-11T04:59:33.611Z,100.00
2022-12-11T05:02:00.346Z,100.00
2022-12-11T05:04:31.962Z,100.00
2022-12-11T05:06:59.027Z,100.00
2022-12-11T05:09:26.255Z,100.00
2022-12-11T05:11:53.184Z,100.00
2022-12-11T05:14:19.969Z,100.00
2022-12-11T05:16:46.625Z,100.00
2022-12-11T05:19:13.419Z,100.00
2022-12-11T05:21:40.120Z,100.00
2022-12-11T05:24:07.144Z,100.00
2022-12-11T05:26:33.780Z,100.00
2022-12-11T05:29:00.434Z,100.00
2022-12-11T05:31:27.283Z,100.00
2022-12-11T05:33:54.180Z,100.00
2022-12-11T05:36:22.935Z,100.00
2022-12-11T05:38:49.935Z,100.00
2022-12-11T05:41:18.181Z,100.00
2022-12-11T05:43:44.998Z,100.00
2022-12-11T05:46:17.227Z,100.00
2022-12-11T05:48:44.958Z,100.00
2022-12-11T05:51:12.353Z,100.00
2022-12-11T05:53:39.267Z,100.00
2022-12-11T05:56:06.848Z,100.00
2022-12-11T05:58:34.142Z,100.00
2022-12-11T06:01:00.906Z,100.00
2022-12-11T06:03:27.766Z,100.00
2022-12-11T06:05:54.353Z,100.00
2022-12-11T06:08:21.040Z,100.00
2022-12-11T06:10:48.371Z,100.00
2022-12-11T06:13:15.341Z,100.00
2022-12-11T06:15:42.173Z,100.00
2022-12-11T06:18:08.839Z,100.00
2022-12-11T06:20:35.729Z,100.00
2022-12-11T06:23:02.357Z,100.00
2022-12-11T06:25:29.317Z,100.00
2022-12-11T06:27:55.934Z,100.00
2022-12-11T06:30:22.624Z,100.00
2022-12-11T06:33:05.107Z,100.00
2022-12-11T06:35:32.049Z,100.00
2022-12-11T06:37:59.061Z,100.00
2022-12-11T06:40:25.752Z,100.00
2022-12-11T06:42:52.441Z,100.00
2022-12-11T06:45:19.096Z,100.00
2022-12-11T06:47:45.811Z,100.00
2022-12-11T06:50:12.574Z,100.00
2022-12-11T06:52:39.242Z,100.00
2022-12-11T06:55:07.546Z,100.00
2022-12-11T06:57:34.977Z,100.00
2022-12-11T07:00:01.727Z,100.00
2022-12-11T07:02:28.518Z,100.00
2022-12-11T07:04:55.531Z,100.00
2022-12-11T07:07:22.293Z,100.00
2022-12-11T07:32:41.734Z,100.00
2022-12-11T07:35:09.399Z,100.00
2022-12-11T07:37:36.505Z,100.00
2022-12-11T07:40:03.362Z,100.00
2022-12-11T07:42:30.227Z,100.00
2022-12-11T07:44:57.089Z,100.00
2022-12-11T07:47:23.824Z,100.00
2022-12-11T07:49:50.548Z,100.00
2022-12-11T07:52:17.235Z,100.00
2022-12-11T07:54:43.949Z,100.00
2022-12-11T07:57:14.103Z,100.00
2022-12-11T07:59:41.936Z,100.00
2022-12-11T08:02:10.939Z,100.00
2022-12-11T08:04:38.074Z,100.00
2022-12-11T08:07:04.744Z,100.00
2022-12-11T08:09:31.450Z,100.00
2022-12-11T08:11:58.169Z,100.00
2022-12-11T08:14:24.885Z,100.00
2022-12-11T08:16:51.628Z,100.00
2022-12-11T08:19:18.310Z,100.00
2022-12-11T08:21:45.175Z,100.00
2022-12-11T08:24:11.835Z,100.00
2022-12-11T08:26:38.600Z,100.00
2022-12-11T08:29:05.402Z,100.00
2022-12-11T08:31:33.181Z,100.00
2022-12-11T08:34:00.321Z,100.00
2022-12-11T08:36:27.302Z,100.00
2022-12-11T08:38:55.868Z,100.00
2022-12-11T08:41:28.298Z,100.00
2022-12-11T08:43:55.819Z,100.00
2022-12-11T08:46:24.146Z,100.00
2022-12-11T08:48:51.262Z,100.00
2022-12-11T08:51:20.806Z,100.00
2022-12-11T08:53:47.869Z,100.00
2022-12-11T08:56:16.777Z,100.00
2022-12-11T08:58:43.910Z,100.00
2022-12-11T09:01:12.690Z,100.00
2022-12-11T09:03:40.054Z,100.00
2022-12-11T09:06:07.648Z,100.00
2022-12-11T09:08:34.885Z,100.00
2022-12-11T09:11:06.873Z,100.00
2022-12-11T09:13:33.633Z,100.00
2022-12-11T09:16:00.506Z,100.00
2022-12-11T09:18:27.318Z,100.00
2022-12-11T09:21:05.742Z,100.00
2022-12-11T09:23:33.026Z,100.00
2022-12-11T09:25:59.798Z,100.00
2022-12-11T09:28:26.476Z,100.00
2022-12-11T09:30:53.218Z,100.00
2022-12-11T09:33:19.976Z,100.00
2022-12-11T09:35:46.776Z,100.00
2022-12-11T09:38:13.549Z,100.00
2022-12-11T09:40:41.685Z,100.00
2022-12-11T09:43:34.697Z,100.00
2022-12-11T09:46:01.603Z,100.00
2022-12-11T09:48:28.738Z,100.00
2022-12-11T09:50:55.581Z,100.00
2022-12-11T09:53:27.755Z,100.00
2022-12-11T09:56:00.767Z,100.00
2022-12-11T09:59:05.172Z,100.00
2022-12-11T10:02:04.119Z,100.00
2022-12-11T10:04:47.433Z,100.00
2022-12-11T10:07:20.788Z,100.00
2022-12-11T10:10:39.716Z,100.00
2022-12-11T10:13:24.911Z,100.00
2022-12-11T10:15:54.472Z,100.00
2022-12-11T10:18:23.061Z,100.00
2022-12-11T10:20:50.969Z,100.00
2022-12-11T10:23:22.544Z,100.00
2022-12-11T10:25:58.557Z,100.00
2022-12-11T10:28:27.141Z,100.00
2022-12-11T10:31:31.395Z,100.00
2022-12-11T10:34:02.768Z,100.00
2022-12-11T10:36:34.813Z,100.00
2022-12-11T10:39:02.029Z,100.00
2022-12-11T10:41:38.105Z,100.00
2022-12-11T10:44:20.524Z,100.00
2022-12-11T10:46:48.819Z,100.00
2022-12-11T10:49:26.859Z,100.00
2022-12-11T10:51:54.379Z,100.00
2022-12-11T10:54:24.249Z,100.00
2022-12-11T10:56:51.568Z,100.00
2022-12-11T10:59:30.141Z,100.00
2022-12-11T11:01:57.782Z,100.00
2022-12-11T11:04:30.746Z,100.00
2022-12-11T11:07:11.983Z,100.00
2022-12-11T11:09:39.895Z,100.00
2022-12-11T11:12:21.239Z,100.00
2022-12-11T11:15:01.692Z,100.00
2022-12-11T11:17:33.828Z,100.00
2022-12-11T11:20:07.467Z,100.00
2022-12-11T11:22:43.749Z,100.00
2022-12-11T11:25:21.407Z,100.00
2022-12-11T11:28:04.965Z,100.00
2022-12-11T11:30:35.922Z,100.00
2022-12-11T11:33:12.762Z,100.00
2022-12-11T11:35:45.515Z,100.00
2022-12-11T11:38:20.409Z,100.00
2022-12-11T11:40:53.082Z,100.00
2022-12-11T11:43:31.931Z,100.00
2022-12-11T11:46:02.018Z,100.00
2022-12-11T11:48:34.123Z,100.00
2022-12-11T11:51:06.580Z,100.00
2022-12-11T11:53:37.445Z,100.00
2022-12-11T11:56:24.098Z,100.00
2022-12-11T11:59:21.911Z,100.00
2022-12-11T12:01:48.644Z,100.00
2022-12-11T12:04:15.282Z,100.00
2022-12-11T12:06:50.880Z,100.00
2022-12-11T12:09:36.950Z,100.00
2022-12-11T12:12:24.699Z,100.00
2022-12-11T12:14:59.428Z,100.00
2022-12-11T12:17:43.455Z,100.00
2022-12-11T12:20:34.496Z,100.00
2022-12-11T12:23:36.931Z,100.00
2022-12-11T12:26:37.384Z,100.00
2022-12-11T12:29:09.971Z,100.00
2022-12-11T12:32:03.889Z,100.00
2022-12-11T12:34:46.233Z,100.00
2022-12-11T12:37:45.313Z,100.00
2022-12-11T12:40:26.749Z,100.00
2022-12-11T12:43:17.560Z,100.00
2022-12-11T12:46:19.906Z,100.00
2022-12-11T12:48:46.638Z,100.00
2022-12-11T12:51:14.131Z,100.00
2022-12-11T12:53:40.990Z,100.00
2022-12-11T12:56:07.713Z,100.00
2022-12-11T12:58:34.760Z,100.00
2022-12-11T13:01:13.766Z,100.00
2022-12-11T13:04:05.736Z,100.00
2022-12-11T13:06:45.681Z,100.00
2022-12-11T13:09:17.570Z,100.00
2022-12-11T13:11:45.270Z,100.00
2022-12-11T13:14:15.644Z,100.00
2022-12-11T13:16:43.523Z,100.00
2022-12-11T13:19:18.029Z,100.00
2022-12-11T13:21:57.652Z,100.00
2022-12-11T13:24:26.671Z,100.00
2022-12-11T13:26:53.429Z,100.00
2022-12-11T13:29:35.452Z,100.00
2022-12-11T13:32:21.420Z,100.00
2022-12-11T13:34:57.385Z,100.00
2022-12-11T13:37:33.148Z,100.00
2022-12-11T13:40:04.176Z,100.00
2022-12-11T13:42:50.845Z,100.00
2022-12-11T13:45:29.188Z,100.00
2022-12-11T13:47:59.376Z,100.00
2022-12-11T13:50:33.063Z,100.00
2022-12-11T13:53:00.665Z,100.00
2022-12-11T13:55:31.915Z,100.00
2022-12-11T13:57:58.692Z,100.00
2022-12-11T14:00:26.501Z,100.00
2022-12-11T14:02:53.839Z,100.00
2022-12-11T14:05:21.130Z,100.00
2022-12-11T14:07:50.091Z,100.00
2022-12-11T14:10:22.098Z,100.00
2022-12-11T14:12:54.604Z,100.00
2022-12-11T14:15:21.498Z,100.00
2022-12-11T14:17:51.647Z,100.00
2022-12-11T14:20:22.676Z,100.00
2022-12-11T14:22:49.491Z,100.00
2022-12-11T14:25:24.887Z,100.00
2022-12-11T14:27:53.988Z,100.00
2022-12-11T14:30:26.158Z,100.00
2022-12-11T14:32:58.094Z,100.00
2022-12-11T14:35:26.409Z,100.00
2022-12-11T14:37:53.411Z,100.00
2022-12-11T14:40:20.497Z,100.00
2022-12-11T14:42:48.652Z,100.00
2022-12-11T14:45:21.251Z,100.00
2022-12-11T14:47:48.715Z,100.00
2022-12-11T14:50:23.757Z,100.00
2022-12-11T14:52:55.929Z,100.00
2022-12-11T14:55:25.363Z,100.00
2022-12-11T14:57:55.269Z,100.00
2022-12-11T15:00:30.385Z,100.00
2022-12-11T15:03:07.946Z,100.00
2022-12-11T15:05:40.524Z,100.00
2022-12-11T15:08:10.886Z,100.00
2022-12-11T15:10:41.228Z,100.00
2022-12-11T15:13:08.528Z,100.00
2022-12-11T15:15:46.046Z,100.00
2022-12-11T15:18:37.228Z,100.00
2022-12-11T15:21:07.016Z,100.00
2022-12-11T15:23:35.243Z,100.00
2022-12-11T15:26:02.172Z,100.00
2022-12-11T15:28:30.216Z,100.00
2022-12-11T15:31:02.799Z,100.00
2022-12-11T15:33:34.397Z,100.00
2022-12-11T15:36:06.040Z,100.00
2022-12-11T15:38:34.974Z,100.00
2022-12-11T15:41:02.281Z,100.00
2022-12-11T15:43:29.241Z,100.00
2022-12-11T15:45:56.076Z,100.00
2022-12-11T15:48:22.929Z,100.00
2022-12-11T15:50:49.862Z,100.00
2022-12-11T15:53:16.569Z,100.00
2022-12-11T15:55:43.255Z,100.00
2022-12-11T15:58:13.369Z,100.00
2022-12-11T16:00:40.111Z,100.00
2022-12-11T16:03:06.764Z,100.00
2022-12-11T16:05:33.483Z,100.00
2022-12-11T16:08:00.381Z,100.00
2022-12-11T16:10:27.211Z,100.00
2022-12-11T16:12:56.676Z,100.00
2022-12-11T16:16:19.188Z,100.00
2022-12-11T16:18:45.831Z,100.00
2022-12-11T16:21:15.632Z,100.00
2022-12-11T16:23:46.678Z,100.00
2022-12-11T16:26:14.567Z,100.00
2022-12-11T16:28:42.444Z,100.00
2022-12-11T16:31:12.973Z,100.00
2022-12-11T16:33:39.740Z,100.00
2022-12-11T16:36:16.356Z,100.00
2022-12-11T16:38:52.905Z,100.00
2022-12-11T16:41:20.137Z,100.00
2022-12-11T16:43:47.551Z,100.00
2022-12-11T16:46:17.990Z,100.00
2022-12-11T16:48:45.265Z,100.00
2022-12-11T16:51:11.985Z,100.00
2022-12-11T16:53:38.728Z,100.00
2022-12-11T16:56:06.442Z,100.00
2022-12-11T16:58:33.377Z,100.00
2022-12-11T17:01:03.124Z,100.00
2022-12-11T17:03:33.553Z,100.00
2022-12-11T17:06:00.312Z,100.00
2022-12-11T17:08:27.029Z,100.00
2022-12-11T17:10:53.786Z,100.00
2022-12-11T17:13:20.366Z,100.00
2022-12-11T17:15:47.162Z,100.00
2022-12-11T17:18:13.920Z,100.00
2022-12-11T17:20:41.862Z,100.00
2022-12-11T17:23:10.607Z,100.00
2022-12-11T17:25:44.364Z,100.00
2022-12-11T17:28:11.476Z,100.00
2022-12-11T17:30:42.660Z,100.00
2022-12-11T17:33:09.652Z,100.00
2022-12-11T17:35:36.751Z,100.00
2022-12-11T17:38:03.937Z,100.00
2022-12-11T17:40:30.923Z,100.00
2022-12-11T17:42:57.660Z,100.00
2022-12-11T17:45:24.288Z,100.00
2022-12-11T17:47:51.109Z,100.00
2022-12-11T17:50:18.175Z,100.00
2022-12-11T17:52:45.001Z,100.00
2022-12-11T17:55:12.092Z,100.00
2022-12-11T17:57:39.120Z,100.00
2022-12-11T18:00:06.903Z,100.00
2022-12-11T18:02:39.278Z,100.00
2022-12-11T18:05:09.947Z,100.00
2022-12-11T18:07:37.833Z,100.00
2022-12-11T18:10:05.145Z,100.00
2022-12-11T18:12:32.178Z,100.00
2022-12-11T18:15:02.578Z,100.00
2022-12-11T18:17:29.422Z,100.00
2022-12-11T18:19:56.052Z,100.00
2022-12-11T18:22:23.278Z,100.00
2022-12-11T18:24:50.136Z,100.00
2022-12-11T18:27:16.945Z,100.00
2022-12-11T18:29:43.612Z,100.00
2022-12-11T18:32:10.365Z,100.00
2022-12-11T18:34:39.294Z,100.00
2022-12-11T18:37:06.876Z,100.00
2022-12-11T18:39:33.713Z,100.00
2022-12-11T18:42:31.096Z,100.00
2022-12-11T18:44:47.146Z,100.00
2022-12-11T18:47:13.987Z,100.00
2022-12-11T18:49:40.765Z,100.00
2022-12-11T18:52:07.431Z,100.00
2022-12-11T18:54:34.206Z,100.00
2022-12-11T18:57:01.493Z,100.00
2022-12-11T18:59:28.238Z,100.00
2022-12-11T19:01:56.589Z,100.00
2022-12-11T19:04:23.509Z,100.00
2022-12-11T19:06:50.332Z,100.00
2022-12-11T19:09:17.196Z,100.00
2022-12-11T19:11:44.048Z,100.00
2022-12-11T19:14:11.345Z,100.00
2022-12-11T19:16:40.302Z,100.00
2022-12-11T19:19:12.116Z,100.00
2022-12-11T19:21:39.098Z,100.00
2022-12-11T19:24:06.725Z,100.00
2022-12-11T19:26:33.486Z,100.00
2022-12-11T19:29:00.390Z,100.00
2022-12-11T19:31:29.337Z,100.00
2022-12-11T19:33:56.375Z,100.00
2022-12-11T19:36:25.275Z,100.00
2022-12-11T19:38:54.363Z,100.00
2022-12-11T19:41:24.974Z,100.00
2022-12-11T19:43:51.697Z,100.00
2022-12-11T19:46:18.664Z,100.00
2022-12-11T19:48:45.589Z,100.00
2022-12-11T19:51:13.314Z,100.00
2022-12-11T19:53:40.577Z,100.00
2022-12-11T19:56:09.356Z,100.00
2022-12-11T19:58:36.169Z,100.00
2022-12-11T20:01:02.964Z,100.00
2022-12-11T20:03:30.208Z,100.00
2022-12-11T20:06:03.622Z,100.00
2022-12-11T20:08:46.269Z,100.00
2022-12-11T20:11:17.863Z,100.00
2022-12-11T20:13:48.432Z,100.00
2022-12-11T20:16:15.615Z,100.00
2022-12-11T20:18:42.631Z,100.00
2022-12-11T20:21:09.838Z,100.00
2022-12-11T20:23:36.657Z,100.00
2022-12-11T20:26:08.230Z,100.00
2022-12-11T20:28:35.074Z,100.00
2022-12-11T20:31:18.100Z,100.00
2022-12-11T20:33:46.922Z,100.00
2022-12-11T20:36:14.993Z,100.00
2022-12-11T20:38:42.116Z,100.00
2022-12-11T20:41:10.345Z,100.00
2022-12-11T20:43:37.498Z,100.00
2022-12-11T20:46:08.244Z,100.00
2022-12-11T20:48:35.147Z,100.00
2022-12-11T20:51:03.198Z,99.99
2022-12-11T20:53:30.142Z,100.00
2022-12-11T20:55:57.099Z,100.00
2022-12-11T20:58:23.950Z,100.00
2022-12-11T21:00:50.880Z,100.00
2022-12-11T21:03:17.848Z,100.00
2022-12-11T21:05:45.175Z,100.00
2022-12-11T21:08:12.070Z,100.00
2022-12-11T21:10:46.337Z,100.00
2022-12-11T21:13:13.056Z,99.94
2022-12-11T21:15:40.223Z,100.00
2022-12-11T21:18:07.094Z,99.97
2022-12-11T21:20:33.914Z,99.98
2022-12-11T21:23:00.713Z,100.00
2022-12-11T21:25:27.440Z,99.95
2022-12-11T21:27:54.266Z,100.00
2022-12-11T21:30:23.164Z,99.94
2022-12-11T21:32:50.129Z,99.77
2022-12-11T21:35:16.893Z,99.82
2022-12-11T21:37:43.667Z,99.78
2022-12-11T21:40:10.654Z,99.66
2022-12-11T21:42:37.320Z,99.63
2022-12-11T21:47:51.159Z,99.19
2022-12-11T21:50:17.765Z,99.50
2022-12-11T21:52:44.436Z,99.47
2022-12-11T21:55:11.681Z,99.30
2022-12-11T21:57:38.604Z,99.74
2022-12-11T22:00:05.930Z,99.46
2022-12-11T22:02:41.001Z,99.63
2022-12-11T22:05:08.842Z,99.80
2022-12-11T22:07:35.651Z,99.58
2022-12-11T22:10:02.513Z,99.65
2022-12-11T22:12:29.129Z,99.83
2022-12-11T22:14:56.277Z,99.82
2022-12-11T22:17:22.983Z,99.95
2022-12-11T22:19:51.923Z,99.79
2022-12-11T22:22:19.308Z,99.78
2022-12-11T22:24:47.077Z,99.64
2022-12-11T22:27:15.905Z,99.34
2022-12-11T22:29:45.830Z,98.98
2022-12-11T22:32:12.558Z,98.98
2022-12-11T22:34:40.427Z,98.58
2022-12-11T22:37:07.097Z,98.51
2022-12-11T22:39:33.733Z,98.42
2022-12-11T22:42:00.408Z,98.43
2022-12-11T22:44:27.184Z,98.38
2022-12-11T22:46:53.778Z,98.44
2022-12-11T22:49:20.479Z,98.27
2022-12-11T22:51:47.240Z,98.15
2022-12-11T22:54:13.923Z,97.86
2022-12-11T22:56:40.582Z,98.09
2022-12-11T22:59:07.633Z,97.99
2022-12-11T23:01:34.517Z,97.65
2022-12-11T23:04:01.133Z,97.71
2022-12-11T23:06:27.978Z,97.63
2022-12-11T23:08:56.772Z,97.41
2022-12-11T23:11:27.457Z,97.18
2022-12-11T23:13:54.474Z,97.21
2022-12-11T23:16:22.292Z,96.98
2022-12-11T23:18:49.007Z,97.11
2022-12-11T23:21:15.697Z,96.99
2022-12-11T23:23:42.811Z,97.01
2022-12-11T23:26:11.222Z,96.91
2022-12-11T23:28:38.188Z,96.95
2022-12-11T23:31:04.786Z,96.86
2022-12-11T23:33:31.462Z,96.65
2022-12-11T23:35:58.559Z,96.45
2022-12-11T23:38:25.280Z,96.45
2022-12-11T23:40:52.129Z,96.62
2022-12-11T23:43:18.746Z,96.63
2022-12-11T23:45:45.609Z,96.86
2022-12-11T23:48:12.727Z,96.88
2022-12-11T23:50:40.320Z,97.03
2022-12-11T23:53:06.979Z,97.11
2022-12-11T23:55:33.650Z,97.19
2022-12-11T23:58:00.350Z,97.08
